createdAt,value
2022-12-14T00:01:35.597Z,21.73
2022-12-14T00:04:02.309Z,19.57
2022-12-14T00:06:31.439Z,19.37
2022-12-14T00:09:00.950Z,23.45
2022-12-14T00:11:28.635Z,21.90
2022-12-14T00:14:00.252Z,19.97
2022-12-14T00:16:30.311Z,19.87
2022-12-14T00:18:58.742Z,21.30
2022-12-14T00:21:26.283Z,20.60
2022-12-14T00:23:53.672Z,19.20
2022-12-14T00:26:25.925Z,18.23
2022-12-14T00:28:54.448Z,21.43
2022-12-14T00:31:22.626Z,19.77
2022-12-14T00:33:50.497Z,20.37
2022-12-14T00:36:17.384Z,19.80
2022-12-14T00:38:44.144Z,19.60
2022-12-14T00:41:12.518Z,19.13
2022-12-14T00:43:39.361Z,20.10
2022-12-14T00:46:06.594Z,19.97
2022-12-14T00:48:33.879Z,18.47
2022-12-14T00:51:01.104Z,20.03
2022-12-14T00:53:27.843Z,20.17
2022-12-14T00:55:54.711Z,21.10
2022-12-14T00:58:23.930Z,19.40
2022-12-14T01:01:02.913Z,17.43
2022-12-14T01:03:30.076Z,19.67
2022-12-14T01:05:57.252Z,19.43
2022-12-14T01:08:24.684Z,18.83
2022-12-14T01:10:51.976Z,18.20
2022-12-14T01:13:20.547Z,19.97
2022-12-14T01:15:47.358Z,19.63
2022-12-14T01:18:14.489Z,19.07
2022-12-14T01:20:41.152Z,18.27
2022-12-14T01:23:07.810Z,19.27
2022-12-14T01:25:34.523Z,18.17
2022-12-14T01:28:01.539Z,19.70
2022-12-14T01:30:28.181Z,18.93
2022-12-14T01:32:54.867Z,16.73
2022-12-14T01:35:21.577Z,17.70
2022-12-14T01:37:49.072Z,18.40
2022-12-14T01:40:16.503Z,17.13
2022-12-14T01:42:43.605Z,18.70
2022-12-14T01:45:24.685Z,19.40
2022-12-14T01:47:57.579Z,17.27
2022-12-14T01:50:37.526Z,16.60
2022-12-14T01:53:12.277Z,17.80
2022-12-14T01:55:45.177Z,16.50
2022-12-14T01:58:24.612Z,16.77
2022-12-14T02:00:57.214Z,17.70
2022-12-14T02:03:46.052Z,17.73
2022-12-14T02:06:36.403Z,16.63
2022-12-14T02:09:06.182Z,15.20
2022-12-14T02:11:44.342Z,17.30
2022-12-14T02:14:11.026Z,16.13
2022-12-14T02:16:38.563Z,15.37
2022-12-14T02:19:09.337Z,20.10
2022-12-14T02:22:32.959Z,16.97
2022-12-14T02:25:21.295Z,15.03
2022-12-14T02:28:17.329Z,14.53
2022-12-14T02:30:55.169Z,16.83
2022-12-14T02:33:55.770Z,18.13
2022-12-14T02:36:35.174Z,16.57
2022-12-14T02:39:07.759Z,15.43
2022-12-14T02:41:47.218Z,15.40
2022-12-14T02:44:20.900Z,14.27
2022-12-14T02:46:59.718Z,14.67
2022-12-14T02:49:49.614Z,14.80
2022-12-14T02:52:29.820Z,13.67
2022-12-14T02:55:05.625Z,13.70
2022-12-14T02:57:50.554Z,13.70
2022-12-14T03:00:18.685Z,14.07
2022-12-14T03:02:48.098Z,13.90
2022-12-14T03:05:15.099Z,12.57
2022-12-14T03:07:44.333Z,14.13
2022-12-14T03:10:27.491Z,13.97
2022-12-14T03:12:59.746Z,16.03
2022-12-14T03:15:28.496Z,13.97
2022-12-14T03:18:00.263Z,12.80
2022-12-14T03:20:32.544Z,13.83
2022-12-14T03:23:03.609Z,12.23
2022-12-14T03:25:34.564Z,13.07
2022-12-14T03:28:37.877Z,13.47
2022-12-14T03:31:34.679Z,13.43
2022-12-14T03:34:04.932Z,12.07
2022-12-14T03:36:50.318Z,13.13
2022-12-14T03:39:25.829Z,12.57
2022-12-14T03:42:15.072Z,12.57
2022-12-14T03:44:52.420Z,12.80
2022-12-14T03:47:26.029Z,14.33
2022-12-14T03:50:31.674Z,12.40
2022-12-14T03:53:28.287Z,9.67
2022-12-14T03:56:16.536Z,8.07
2022-12-14T03:59:06.862Z,11.10
2022-12-14T04:01:59.407Z,12.77
2022-12-14T04:04:43.769Z,12.40
2022-12-14T04:07:32.112Z,11.40
2022-12-14T04:10:26.388Z,11.63
2022-12-14T04:13:18.195Z,12.00
2022-12-14T04:16:05.716Z,11.20
2022-12-14T04:18:59.865Z,11.00
2022-12-14T04:21:46.308Z,13.00
2022-12-14T04:24:43.855Z,11.93
2022-12-14T04:27:29.463Z,12.03
2022-12-14T04:30:00.781Z,12.57
2022-12-14T04:32:46.474Z,13.13
2022-12-14T04:35:29.019Z,11.57
2022-12-14T04:38:04.506Z,10.90
2022-12-14T04:40:40.887Z,13.10
2022-12-14T04:43:18.062Z,13.03
2022-12-14T04:45:55.589Z,10.33
2022-12-14T04:48:43.669Z,11.93
2022-12-14T04:51:36.493Z,11.57
2022-12-14T04:54:13.489Z,10.40
2022-12-14T04:56:49.661Z,12.70
2022-12-14T04:59:16.474Z,11.43
2022-12-14T05:02:02.022Z,12.57
2022-12-14T05:04:57.214Z,11.03
2022-12-14T05:07:49.643Z,12.37
2022-12-14T05:10:22.689Z,13.07
2022-12-14T05:13:03.890Z,10.73
2022-12-14T05:15:35.391Z,11.23
2022-12-14T05:18:06.856Z,10.63
2022-12-14T05:20:33.780Z,12.67
2022-12-14T05:23:00.537Z,11.60
2022-12-14T05:25:27.289Z,11.67
2022-12-14T05:27:54.054Z,9.80
2022-12-14T05:30:20.990Z,11.43
2022-12-14T05:32:47.877Z,10.97
2022-12-14T05:35:14.893Z,11.57
2022-12-14T05:37:42.525Z,10.07
2022-12-14T05:40:10.554Z,10.80
2022-12-14T05:42:42.798Z,9.60
2022-12-14T05:45:14.054Z,8.50
2022-12-14T05:47:41.162Z,9.93
2022-12-14T05:50:09.827Z,10.43
2022-12-14T05:52:36.545Z,11.77
2022-12-14T05:55:04.706Z,10.17
2022-12-14T05:57:32.177Z,11.00
2022-12-14T05:59:58.952Z,10.07
2022-12-14T06:02:25.888Z,8.00
2022-12-14T06:04:52.655Z,10.33
2022-12-14T06:07:23.074Z,10.97
2022-12-14T06:09:54.177Z,9.83
2022-12-14T06:12:20.913Z,9.90
2022-12-14T06:14:47.553Z,9.13
2022-12-14T06:17:14.311Z,10.27
2022-12-14T06:19:40.918Z,9.83
2022-12-14T06:22:07.591Z,9.10
2022-12-14T06:24:34.301Z,8.17
2022-12-14T06:27:01.266Z,9.97
2022-12-14T06:29:28.015Z,9.90
2022-12-14T06:31:54.649Z,8.23
2022-12-14T06:34:28.004Z,8.57
2022-12-14T06:36:55.365Z,9.47
2022-12-14T06:39:22.113Z,9.10
2022-12-14T06:41:51.058Z,9.27
2022-12-14T06:44:17.792Z,9.27
2022-12-14T06:46:45.178Z,8.77
2022-12-14T06:49:32.738Z,9.27
2022-12-14T06:51:59.454Z,9.10
2022-12-14T06:54:26.185Z,8.20
2022-12-14T06:56:52.849Z,8.53
2022-12-14T06:59:19.586Z,8.37
2022-12-14T07:01:49.979Z,9.47
2022-12-14T07:04:18.715Z,9.90
2022-12-14T07:06:45.429Z,9.37
2022-12-14T07:09:14.140Z,8.47
2022-12-14T07:11:41.266Z,9.70
2022-12-14T07:14:08.098Z,12.30
2022-12-14T07:16:37.081Z,12.43
2022-12-14T07:19:04.922Z,9.77
2022-12-14T07:21:32.331Z,10.03
2022-12-14T07:24:00.678Z,8.93
2022-12-14T07:26:28.188Z,10.37
2022-12-14T07:28:55.140Z,10.40
2022-12-14T07:31:26.932Z,8.27
2022-12-14T07:33:56.248Z,9.93
2022-12-14T07:36:24.326Z,10.00
2022-12-14T07:38:52.074Z,9.10
2022-12-14T07:41:23.078Z,8.30
2022-12-14T07:43:51.221Z,9.70
2022-12-14T07:46:21.394Z,7.50
2022-12-14T07:48:50.738Z,9.97
2022-12-14T07:51:20.969Z,9.10
2022-12-14T07:53:48.002Z,10.13
2022-12-14T07:56:35.205Z,8.53
2022-12-14T07:59:03.831Z,8.40
2022-12-14T08:01:33.736Z,8.10
2022-12-14T08:04:11.955Z,8.20
2022-12-14T08:06:39.933Z,8.97
2022-12-14T08:09:08.453Z,8.83
2022-12-14T08:11:35.864Z,8.80
2022-12-14T08:14:08.880Z,8.07
2022-12-14T08:16:35.636Z,8.63
2022-12-14T08:19:02.939Z,9.50
2022-12-14T08:21:30.341Z,8.67
2022-12-14T08:23:57.787Z,8.80
2022-12-14T08:26:31.596Z,8.57
2022-12-14T08:29:02.026Z,8.27
2022-12-14T08:31:29.178Z,8.70
2022-12-14T08:33:57.705Z,7.30
2022-12-14T08:36:28.024Z,6.60
2022-12-14T08:38:56.653Z,7.70
2022-12-14T08:41:24.486Z,9.37
2022-12-14T08:43:52.724Z,9.20
2022-12-14T08:46:20.160Z,7.73
2022-12-14T08:48:47.739Z,8.93
2022-12-14T08:51:14.385Z,8.40
2022-12-14T08:53:41.124Z,8.67
2022-12-14T08:56:13.131Z,8.03
2022-12-14T08:58:40.853Z,9.13
2022-12-14T09:01:12.293Z,9.23
2022-12-14T09:03:40.941Z,8.60
2022-12-14T09:06:10.518Z,8.10
2022-12-14T09:08:37.595Z,8.90
2022-12-14T09:11:05.712Z,8.90
2022-12-14T09:13:33.841Z,8.53
2022-12-14T09:16:06.710Z,9.60
2022-12-14T09:18:34.552Z,11.27
2022-12-14T09:21:02.151Z,9.77
2022-12-14T09:23:31.138Z,24.47
2022-12-14T09:26:04.548Z,12.30
2022-12-14T09:28:32.987Z,9.97
2022-12-14T09:31:02.276Z,8.83
2022-12-14T09:33:30.378Z,9.57
2022-12-14T09:36:05.924Z,8.87
2022-12-14T09:38:34.422Z,8.53
2022-12-14T09:41:07.269Z,8.20
2022-12-14T09:43:42.121Z,7.93
2022-12-14T09:46:21.040Z,8.63
2022-12-14T09:48:49.165Z,8.77
2022-12-14T09:51:19.779Z,8.33
2022-12-14T09:53:50.396Z,8.57
2022-12-14T09:56:19.788Z,8.47
2022-12-14T09:58:59.642Z,7.83
2022-12-14T10:05:06.241Z,8.30
2022-12-14T10:07:54.812Z,8.60
2022-12-14T10:10:26.662Z,8.83
2022-12-14T10:12:59.264Z,7.67
2022-12-14T10:15:48.647Z,7.70
2022-12-14T10:18:58.949Z,8.07
2022-12-14T10:21:16.135Z,8.43
2022-12-14T10:23:51.373Z,8.00
2022-12-14T10:26:20.580Z,8.37
2022-12-14T10:29:01.674Z,7.80
2022-12-14T10:32:07.638Z,7.97
2022-12-14T10:34:35.122Z,7.53
2022-12-14T10:37:12.166Z,7.90
2022-12-14T10:40:11.832Z,7.50
2022-12-14T10:42:59.927Z,6.97
2022-12-14T10:45:41.092Z,7.27
2022-12-14T10:48:11.671Z,7.40
2022-12-14T10:51:01.671Z,6.60
2022-12-14T10:53:40.782Z,7.13
2022-12-14T10:56:14.470Z,6.97
2022-12-14T10:58:41.303Z,6.40
2022-12-14T11:01:14.666Z,6.27
2022-12-14T11:03:43.899Z,6.97
2022-12-14T11:06:19.586Z,6.37
2022-12-14T11:08:48.985Z,6.87
2022-12-14T11:11:20.854Z,7.10
2022-12-14T11:13:52.595Z,6.70
2022-12-14T11:16:31.774Z,6.37
2022-12-14T11:19:04.196Z,8.00
2022-12-14T11:21:38.387Z,7.30
2022-12-14T11:24:05.921Z,6.67
2022-12-14T11:26:40.036Z,6.40
2022-12-14T11:29:18.749Z,7.60
2022-12-14T11:31:48.057Z,7.60
2022-12-14T11:34:39.469Z,7.10
2022-12-14T11:37:23.230Z,7.30
2022-12-14T11:39:56.321Z,7.40
2022-12-14T11:42:24.115Z,8.50
2022-12-14T11:44:51.836Z,7.90
2022-12-14T11:47:24.432Z,7.47
2022-12-14T11:49:56.106Z,8.80
2022-12-14T11:52:27.145Z,8.03
2022-12-14T11:54:56.820Z,8.37
2022-12-14T11:57:32.404Z,9.97
2022-12-14T12:00:04.363Z,12.00
2022-12-14T12:02:40.843Z,7.27
2022-12-14T12:05:11.233Z,7.67
2022-12-14T12:07:42.627Z,10.23
2022-12-14T12:10:12.266Z,12.10
2022-12-14T12:12:52.239Z,10.07
2022-12-14T12:15:35.298Z,6.87
2022-12-14T12:18:11.256Z,6.80
2022-12-14T12:20:44.882Z,6.67
2022-12-14T12:23:19.459Z,6.30
2022-12-14T12:25:50.531Z,7.63
2022-12-14T12:28:25.913Z,9.37
2022-12-14T12:30:59.270Z,8.37
2022-12-14T12:33:43.557Z,8.17
2022-12-14T12:36:11.262Z,6.37
2022-12-14T12:38:51.883Z,7.00
2022-12-14T12:41:24.489Z,5.87
2022-12-14T12:44:21.786Z,5.90
2022-12-14T12:47:23.717Z,5.87
2022-12-14T12:49:47.332Z,6.47
2022-12-14T12:52:25.247Z,5.77
2022-12-14T12:55:05.954Z,5.83
2022-12-14T12:57:40.530Z,6.57
2022-12-14T13:00:07.940Z,5.60
2022-12-14T13:02:50.431Z,5.77
2022-12-14T13:05:45.895Z,6.13
2022-12-14T13:08:34.222Z,6.27
2022-12-14T13:11:25.504Z,6.03
2022-12-14T13:13:56.808Z,5.63
2022-12-14T13:16:34.818Z,5.57
2022-12-14T13:19:50.451Z,9.97
2022-12-14T13:22:24.864Z,9.93
2022-12-14T13:24:58.944Z,6.70
2022-12-14T13:27:46.313Z,6.73
2022-12-14T13:30:34.801Z,7.90
2022-12-14T13:33:01.464Z,7.37
2022-12-14T13:36:05.413Z,8.67
2022-12-14T13:39:00.054Z,8.47
2022-12-14T13:41:35.702Z,10.27
2022-12-14T13:44:08.286Z,9.53
2022-12-14T13:46:35.395Z,10.10
2022-12-14T13:49:05.390Z,9.80
2022-12-14T13:51:39.548Z,7.83
2022-12-14T13:54:40.101Z,6.90
2022-12-14T13:57:20.572Z,6.47
2022-12-14T13:59:55.933Z,6.37
2022-12-14T14:02:50.953Z,6.83
2022-12-14T14:05:20.633Z,5.90
2022-12-14T14:08:03.981Z,5.90
2022-12-14T14:10:41.746Z,6.30
2022-12-14T14:13:31.176Z,6.17
2022-12-14T14:16:27.475Z,6.07
2022-12-14T14:19:02.883Z,6.77
2022-12-14T14:21:58.916Z,6.23
2022-12-14T14:24:27.679Z,6.10
2022-12-14T14:27:08.676Z,6.33
2022-12-14T14:29:45.007Z,6.13
2022-12-14T14:32:41.560Z,6.07
2022-12-14T14:35:38.355Z,6.63
2022-12-14T14:38:09.836Z,9.70
2022-12-14T14:41:15.233Z,7.00
2022-12-14T14:43:39.789Z,8.03
2022-12-14T14:46:09.754Z,6.30
2022-12-14T14:48:49.702Z,6.00
2022-12-14T14:51:25.181Z,5.40
2022-12-14T14:55:03.576Z,6.20
2022-12-14T14:57:36.108Z,6.13
2022-12-14T15:00:05.996Z,5.83
2022-12-14T15:02:40.099Z,5.70
2022-12-14T15:08:04.137Z,6.87
2022-12-14T15:10:38.743Z,6.70
2022-12-14T15:13:18.696Z,7.33
2022-12-14T15:15:49.787Z,8.03
2022-12-14T15:18:19.298Z,7.13
2022-12-14T15:21:01.137Z,7.57
2022-12-14T15:23:36.477Z,7.87
2022-12-14T15:26:16.212Z,7.13
2022-12-14T15:28:45.942Z,7.67
2022-12-14T15:31:13.802Z,6.80
2022-12-14T15:33:42.996Z,7.50
2022-12-14T15:36:17.024Z,6.87
2022-12-14T15:38:55.505Z,6.20
2022-12-14T15:41:25.289Z,7.40
2022-12-14T15:43:56.442Z,6.80
2022-12-14T15:46:33.561Z,6.63
2022-12-14T15:49:22.163Z,6.53
2022-12-14T15:51:50.298Z,5.80
2022-12-14T15:54:24.204Z,6.47
2022-12-14T15:56:54.598Z,6.20
2022-12-14T15:59:24.103Z,7.00
2022-12-14T16:02:18.435Z,7.30
2022-12-14T16:04:46.125Z,6.73
2022-12-14T16:07:42.483Z,7.87
2022-12-14T16:10:33.609Z,9.47
2022-12-14T16:13:07.008Z,8.67
2022-12-14T16:15:33.978Z,9.10
2022-12-14T16:18:02.994Z,8.30
2022-12-14T16:20:43.701Z,7.97
2022-12-14T16:23:14.270Z,7.93
2022-12-14T16:25:56.095Z,7.93
2022-12-14T16:28:37.310Z,9.23
2022-12-14T16:31:18.157Z,8.93
2022-12-14T16:33:45.525Z,8.97
2022-12-14T16:36:25.597Z,8.60
2022-12-14T16:39:03.713Z,8.97
2022-12-14T16:41:41.164Z,11.40
2022-12-14T16:44:19.819Z,12.13
2022-12-14T16:47:04.636Z,10.50
2022-12-14T16:49:42.996Z,10.93
2022-12-14T16:52:09.650Z,10.30
2022-12-14T16:54:38.093Z,11.03
2022-12-14T16:57:27.207Z,11.73
2022-12-14T17:00:00.409Z,10.93
2022-12-14T17:02:35.864Z,10.60
2022-12-14T17:05:06.026Z,10.80
2022-12-14T17:07:36.388Z,10.53
2022-12-14T17:10:03.447Z,11.80
2022-12-14T17:12:30.285Z,11.60
2022-12-14T17:14:57.495Z,9.83
2022-12-14T17:17:32.261Z,10.23
2022-12-14T17:19:59.508Z,15.10
2022-12-14T17:22:29.746Z,21.43
2022-12-14T17:24:56.514Z,14.83
2022-12-14T17:27:26.497Z,13.57
2022-12-14T17:29:54.863Z,13.10
2022-12-14T17:32:22.445Z,13.10
2022-12-14T17:34:49.253Z,11.37
2022-12-14T17:37:17.321Z,12.37
2022-12-14T17:39:44.015Z,12.73
2022-12-14T17:42:16.664Z,12.37
2022-12-14T17:44:48.639Z,12.17
2022-12-14T17:47:16.513Z,12.23
2022-12-14T17:49:43.269Z,12.13
2022-12-14T17:52:23.687Z,11.90
2022-12-14T17:54:50.625Z,13.00
2022-12-14T17:57:20.771Z,12.50
2022-12-14T17:59:48.351Z,14.40
2022-12-14T18:02:33.392Z,13.77
2022-12-14T18:05:00.367Z,13.27
2022-12-14T18:07:27.164Z,13.27
2022-12-14T18:09:54.533Z,13.17
2022-12-14T18:12:23.505Z,11.37
2022-12-14T18:14:51.122Z,14.17
2022-12-14T18:17:19.212Z,12.60
2022-12-14T18:19:47.887Z,11.57
2022-12-14T18:22:16.749Z,10.17
2022-12-14T18:24:43.470Z,12.63
2022-12-14T18:27:13.415Z,12.60
2022-12-14T18:29:40.255Z,13.17
2022-12-14T18:32:06.941Z,12.07
2022-12-14T18:34:33.604Z,11.50
2022-12-14T18:37:00.312Z,11.53
2022-12-14T18:39:27.028Z,11.80
2022-12-14T18:41:53.649Z,11.80
2022-12-14T18:44:23.815Z,11.77
2022-12-14T18:46:50.700Z,12.37
2022-12-14T18:49:17.854Z,12.00
2022-12-14T18:51:44.715Z,11.33
2022-12-14T18:54:11.614Z,11.53
2022-12-14T18:56:41.308Z,11.37
2022-12-14T18:59:08.015Z,13.07
2022-12-14T19:01:34.755Z,11.87
2022-12-14T19:04:01.592Z,13.03
2022-12-14T19:06:45.331Z,13.47
2022-12-14T19:09:14.159Z,13.90
2022-12-14T19:11:44.220Z,12.83
2022-12-14T19:14:11.253Z,11.43
2022-12-14T19:16:38.302Z,11.80
2022-12-14T19:19:05.097Z,12.30
2022-12-14T19:21:31.910Z,12.70
2022-12-14T19:23:59.889Z,12.53
2022-12-14T19:26:28.431Z,12.77
2022-12-14T19:28:55.323Z,12.93
2022-12-14T19:31:22.636Z,12.40
2022-12-14T19:33:49.387Z,11.83
2022-12-14T19:36:16.091Z,12.10
2022-12-14T19:38:42.774Z,12.20
2022-12-14T19:41:13.568Z,12.23
2022-12-14T19:43:40.280Z,13.93
2022-12-14T19:46:08.309Z,15.50
2022-12-14T19:48:35.285Z,16.23
2022-12-14T19:51:10.928Z,14.50
2022-12-14T19:53:38.890Z,17.57
2022-12-14T19:56:06.509Z,17.37
2022-12-14T19:58:33.350Z,14.97
2022-12-14T20:01:00.086Z,16.67
2022-12-14T20:03:27.255Z,19.10
2022-12-14T20:05:59.386Z,19.37
2022-12-14T20:08:28.797Z,17.20
2022-12-14T20:10:55.607Z,13.57
2022-12-14T20:13:23.672Z,11.63
2022-12-14T20:15:55.326Z,13.03
2022-12-14T20:18:22.669Z,12.37
2022-12-14T20:20:53.497Z,10.67
2022-12-14T20:23:22.109Z,12.20
2022-12-14T20:25:49.215Z,11.47
2022-12-14T20:28:16.101Z,12.80
2022-12-14T20:30:44.552Z,12.40
2022-12-14T20:33:11.801Z,11.50
2022-12-14T20:35:38.598Z,12.90
2022-12-14T20:38:05.473Z,12.13
2022-12-14T20:40:38.102Z,12.80
2022-12-14T20:43:05.398Z,12.03
2022-12-14T20:45:32.048Z,11.07
2022-12-14T20:47:58.782Z,12.23
2022-12-14T20:50:25.403Z,11.57
2022-12-14T20:52:52.125Z,12.90
2022-12-14T20:55:18.758Z,12.90
2022-12-14T20:57:47.541Z,11.80
2022-12-14T21:00:14.833Z,12.53
2022-12-14T21:02:42.766Z,10.77
2022-12-14T21:05:11.381Z,12.87
2022-12-14T21:07:38.650Z,11.87
2022-12-14T21:10:06.886Z,11.73
2022-12-14T21:12:34.053Z,11.53
2022-12-14T21:15:00.884Z,12.63
2022-12-14T21:17:29.946Z,12.60
2022-12-14T21:19:57.704Z,11.00
2022-12-14T21:22:26.841Z,12.00
2022-12-14T21:25:02.941Z,11.27
2022-12-14T21:27:31.299Z,12.20
2022-12-14T21:29:58.165Z,11.73
2022-12-14T21:32:25.000Z,12.47
2022-12-14T21:34:52.249Z,11.53
2022-12-14T21:37:19.294Z,11.97
2022-12-14T21:39:53.869Z,10.73
2022-12-14T21:42:22.028Z,11.07
2022-12-14T21:44:50.462Z,11.20
2022-12-14T21:47:20.591Z,11.10
2022-12-14T21:49:47.379Z,11.27
2022-12-14T21:52:18.326Z,10.93
2022-12-14T21:54:45.319Z,12.07
2022-12-14T21:57:38.227Z,11.13
2022-12-14T22:00:07.156Z,10.97
2022-12-14T22:02:34.133Z,10.43
2022-12-14T22:05:00.981Z,11.50
2022-12-14T22:07:32.607Z,10.17
2022-12-14T22:09:59.400Z,9.33
2022-12-14T22:12:26.293Z,10.50
2022-12-14T22:14:53.160Z,11.47
2022-12-14T22:17:19.847Z,10.47
2022-12-14T22:19:46.660Z,10.23
2022-12-14T22:22:17.093Z,11.80
2022-12-14T22:24:45.068Z,10.90
2022-12-14T22:27:12.666Z,11.00
2022-12-14T22:29:39.619Z,10.00
2022-12-14T22:32:07.301Z,10.17
2022-12-14T22:34:34.161Z,9.07
2022-12-14T22:37:00.932Z,9.83
2022-12-14T22:39:27.630Z,11.40
2022-12-14T22:41:54.333Z,9.57
2022-12-14T22:44:21.063Z,10.23
2022-12-14T22:46:49.695Z,10.50
2022-12-14T22:49:18.459Z,10.20
2022-12-14T22:51:45.514Z,9.83
2022-12-14T22:54:20.858Z,10.60
2022-12-14T22:56:56.825Z,10.23
2022-12-14T22:59:30.335Z,10.43
2022-12-14T23:01:59.056Z,10.37
2022-12-14T23:04:25.997Z,10.47
2022-12-14T23:06:52.991Z,10.27
2022-12-14T23:09:38.225Z,9.10
2022-12-14T23:12:23.713Z,10.67
2022-12-14T23:15:08.958Z,10.57
2022-12-14T23:17:54.567Z,9.43
2022-12-14T23:20:39.807Z,8.80
2022-12-14T23:23:26.791Z,8.73
2022-12-14T23:26:12.588Z,9.07
2022-12-14T23:28:58.278Z,10.03
2022-12-14T23:31:43.380Z,9.70
2022-12-14T23:34:28.621Z,9.30
2022-12-14T23:37:19.747Z,8.93
2022-12-14T23:40:05.983Z,10.07
2022-12-14T23:42:51.240Z,11.10
2022-12-14T23:45:36.422Z,9.97
2022-12-14T23:48:21.509Z,10.40
2022-12-14T23:51:06.571Z,10.77
2022-12-14T23:53:51.779Z,10.83
2022-12-14T23:56:36.996Z,10.67
2022-12-14T23:59:26.300Z,9.50
